Highland Valley West (175) Station Data

Red Flag Warning: No
Fire Weather Zone: 250
SDGE Region: Ramona
Lat/Lon: 33.067/-116.99

Observations

Time Wind Speed/Gust Temp(F) RH Fuel Moist Fuel Temp(F) Dewpt(F) Tmax(F) Tmin(F) Accum Precip 10-min Precip SL Press(mb)
4/26 2:40am 61 2 G 3 53° 78% - - 47° 56.3° 51.6° - - -
4/26 2:30am 71 1 G 2 53° 79% - - 46° 56.3° 51.6° - - -
4/26 2:20am 60 2 G 3 53° 80% - - 47° 56.3° 51.6° - - -
4/26 2:10am 102 2 G 2 53° 79% - - 47° 56.3° 51.7° - - -
4/26 2:00am 293 1 G 3 55° 77% - - 48° 56.3° 51.7° - - -
4/26 1:50am 28 1 G 3 53° 78% - - 46° 56.3° 51.7° - - -
4/26 1:40am 19 1 G 2 54° 76% - - 46° 56.3° 52.8° - - -
4/26 1:30am 80 2 G 3 54° 74% - - 46° 56.3° 53.1° - - -
4/26 1:20am 36 2 G 5 55° 72% - - 46° 56.3° 53.1° - - -
4/26 1:10am 264 1 G 3 54° 73% - - 46° 56.3° 53.5° - - -
4/26 1:00am 249 0 G 1 55° 71% - - 46° 56.3° 53.5° - - -
4/26 12:50am 25 1 G 2 55° 72% - - 46° 56.3° 53.5° - - -
4/26 12:40am 100 2 G 3 55° 72% - - 46° 56.3° 53.5° - - -
4/26 12:30am 349 0 G 1 56° 70% - - 46° 56.3° 54.5° - - -
4/26 12:20am 44 1 G 3 55° 72% - - 46° 56.2° 54.5° - - -
4/26 12:10am 98 2 G 2 55° 72% - - 46° 55.7° 54.5° - - -
4/26 12:00am 257 0 G 3 56° 71% - - 46° 68.2° 54.7° - - -
4/25 11:50pm 64 2 G 4 57° 67% - - 46° 68.2° 54.7° - - -
4/25 11:40pm 72 2 G 4 57° 66% - - 46° 68.2° 54.7° - - -
4/25 11:30pm 54 2 G 3 57° 68% - - 46° 68.2° 54.7° - - -
4/25 11:20pm 68 1 G 3 57° 68% - - 47° 68.2° 54.7° - - -
4/25 11:10pm 68 2 G 5 57° 69% - - 47° 68.2° 54.7° - - -
4/25 11:00pm 76 5 G 8 57° 68% - - 47° 68.2° 54.7° - - -
4/25 10:50pm 86 5 G 9 57° 68% - - 46° 68.2° 54.7° - - -
4/25 10:40pm 85 7 G 10 57° 64% - - 45° 68.2° 54.7° - - -
4/25 10:30pm 79 5 G 7 56° 64% - - 45° 68.2° 54.7° - - -
4/25 10:20pm 78 3 G 4 56° 65% - - 45° 68.2° 54.7° - - -
4/25 10:10pm 75 2 G 3 56° 66% - - 45° 68.2° 54.7° - - -
4/25 10:00pm 86 2 G 4 56° 67% - - 45° 68.2° 54.7° - - -
4/25 9:50pm 91 3 G 4 57° 64% - - 45° 68.2° 54.7° - - -
4/25 9:40pm 44 1 G 2 58° 63% - - 45° 68.2° 54.7° - - -
4/25 9:30pm 66 1 G 2 57° 64% - - 45° 68.2° 54.7° - - -
4/25 9:20pm 66 2 G 4 57° 65% - - 45° 68.2° 54.7° - - -
4/25 9:10pm 84 2 G 4 57° 66% - - 46° 68.2° 54.7° - - -
4/25 9:00pm 123 1 G 3 58° 64% - - 46° 68.2° 54.7° - - -
4/25 8:50pm 309 2 G 3 59° 61% - - 45° 68.2° 54.7° - - -
4/25 8:40pm 346 1 G 2 58° 63% - - 45° 68.2° 54.7° - - -
4/25 8:30pm 146 0 G 1 58° 65% - - 46° 68.2° 54.7° - - -
4/25 8:20pm 126 0 G 1 58° 66% - - 46° 68.2° 54.7° - - -
4/25 8:10pm 182 0 G 2 59° 64% - - 47° 68.2° 54.7° - - -
4/25 8:00pm 251 1 G 2 59° 65% - - 47° 68.2° 54.7° - - -
4/25 7:50pm 243 1 G 2 59° 66% - - 47° 68.2° 54.7° - - -
4/25 7:40pm 244 3 G 5 59° 66% - - 48° 68.2° 54.7° - - -
4/25 7:30pm 255 3 G 5 60° 66% - - 48° 68.2° 54.7° - - -
4/25 7:20pm 247 3 G 5 60° 65% - - 48° 68.2° 54.7° - - -
4/25 7:10pm 250 3 G 5 60° 64% - - 48° 68.2° 54.7° - - -
4/25 7:00pm 247 4 G 6 61° 62% - - 48° 68.2° 54.7° - - -
4/25 6:50pm 250 4 G 9 61° 61% - - 48° 68.2° 54.7° - - -
4/25 6:40pm 247 5 G 8 62° 60% - - 48° 68.2° 54.7° - - -
4/25 6:30pm 255 5 G 9 62° 59% - - 48° 68.2° 54.7° - - -
4/25 6:20pm 251 4 G 8 63° 59% - - 48° 68.2° 54.7° - - -
4/25 6:10pm 267 5 G 10 63° 60% - - 49° 68.2° 54.7° - - -
4/25 6:00pm 266 5 G 10 63° 60% - - 49° 68.2° 54.7° - - -
4/25 5:50pm 261 5 G 9 63° 60% - - 49° 68.2° 54.7° - - -
4/25 5:40pm 251 6 G 8 63° 60% - - 49° 68.2° 54.7° - - -
4/25 5:30pm 267 6 G 11 64° 59% - - 49° 68.2° 54.7° - - -
4/25 5:20pm 273 7 G 13 64° 58% - - 49° 68.2° 54.7° - - -
4/25 5:10pm 256 7 G 14 65° 57% - - 49° 68.2° 54.7° - - -
4/25 5:00pm 236 7 G 13 65° 57% - - 49° 68.2° 54.7° - - -
4/25 4:50pm 255 6 G 11 65° 57% - - 50° 68.2° 54.7° - - -
4/25 4:40pm 255 6 G 11 65° 60% - - 51° 68.2° 54.7° - - -
4/25 4:30pm 265 6 G 12 65° 61% - - 51° 68.2° 54.7° - - -
4/25 4:20pm 257 6 G 12 65° 61% - - 52° 68.2° 54.7° - - -
4/25 4:10pm 252 7 G 12 65° 61% - - 52° 68.2° 54.7° - - -
4/25 4:00pm 255 7 G 12 66° 60% - - 51° 68.2° 54.7° - - -
4/25 3:50pm 255 6 G 11 66° 60% - - 51° 68.2° 54.7° - - -
4/25 3:40pm 266 7 G 14 66° 59% - - 51° 68.2° 54.7° - - -
4/25 3:30pm 247 6 G 13 66° 59% - - 51° 68.2° 54.7° - - -
4/25 3:20pm 263 8 G 14 65° 60% - - 51° 68.2° 54.7° - - -
4/25 3:10pm 272 7 G 15 65° 60% - - 51° 68.2° 54.7° - - -
4/25 3:00pm 272 7 G 12 65° 61% - - 51° 68.2° 54.7° - - -
4/25 2:50pm 268 7 G 13 65° 61% - - 51° 68.2° 54.7° - - -
4/25 2:40pm 263 6 G 13 65° 61% - - 51° 68.2° 54.7° - - -
4/25 2:30pm 233 6 G 10 65° 62% - - 51° 68.2° 54.7° - - -
4/25 2:20pm 260 6 G 11 65° 62% - - 51° 68.2° 54.7° - - -
4/25 2:10pm 264 7 G 13 65° 62% - - 52° 68.2° 54.7° - - -
4/25 2:00pm 267 7 G 12 66° 61% - - 52° 68.2° 54.7° - - -
4/25 1:50pm 268 7 G 12 65° 61% - - 51° 68.2° 54.7° - - -
4/25 1:40pm 254 7 G 13 66° 58% - - 51° 68.2° 54.7° - - -
4/25 1:30pm 244 6 G 10 66° 59% - - 51° 68.2° 54.7° - - -
4/25 1:20pm 255 7 G 13 66° 58% - - 51° 67.3° 54.7° - - -
4/25 1:10pm 257 6 G 13 66° 59% - - 52° 67.2° 54.7° - - -
4/25 1:00pm 277 8 G 15 65° 61% - - 51° 67° 54.7° - - -
4/25 12:50pm 259 6 G 11 65° 63% - - 52° 67° 54.7° - - -
4/25 12:40pm 274 8 G 14 65° 62% - - 52° 67° 54.7° - - -
4/25 12:30pm 276 7 G 14 66° 60% - - 51° 67° 54.7° - - -
4/25 12:20pm 276 7 G 15 66° 59% - - 51° 67° 54.7° - - -
4/25 12:10pm 270 7 G 13 66° 59% - - 51° 67° 54.7° - - -
4/25 12:00pm 253 6 G 12 65° 60% - - 51° 66.2° 54.7° - - -
4/25 11:50am 260 4 G 9 64° 59% - - 50° 65.7° 54.7° - - -
4/25 11:40am 278 7 G 11 64° 60% - - 50° 65.6° 54.7° - - -
4/25 11:30am 266 3 G 8 64° 59% - - 50° 65.6° 54.7° - - -
4/25 11:20am 272 4 G 9 64° 60% - - 50° 65.6° 54.7° - - -
4/25 11:10am 237 5 G 9 64° 61% - - 51° 65.6° 54.7° - - -
4/25 11:00am 274 3 G 8 64° 61% - - 50° 65.6° 54.7° - - -
4/25 10:50am 224 3 G 8 63° 63% - - 50° 65.6° 54.7° - - -
4/25 10:40am 246 4 G 9 64° 61% - - 50° 65.6° 54.7° - - -
4/25 10:30am 222 3 G 8 64° 59% - - 49° 65.2° 54.7° - - -
4/25 10:20am 266 4 G 6 63° 62% - - 50° 63.4° 54.7° - - -
4/25 10:10am 228 4 G 11 62° 66% - - 50° 63.2° 54.7° - - -
4/25 10:00am 284 4 G 11 62° 64% - - 50° 63.2° 54.7° - - -
4/25 9:50am 240 6 G 10 61° 67% - - 50° 62.1° 54.7° - - -
4/25 9:40am 206 5 G 10 61° 69% - - 51° 61.4° 54.7° - - -
4/25 9:30am 188 5 G 9 60° 71% - - 51° 60.7° 54.7° - - -
4/25 9:20am 207 5 G 10 60° 74% - - 51° 60.6° 54.7° - - -
4/25 9:10am 197 4 G 8 59° 76% - - 51° 59.5° 54.7° - - -
4/25 9:00am 209 4 G 9 58° 78% - - 52° 59.5° 54.7° - - -
4/25 8:50am 211 5 G 9 58° 79% - - 51° 58.8° 54.7° - - -
4/25 8:40am 232 4 G 7 58° 79% - - 52° 58.8° 54.7° - - -
4/25 8:30am 193 5 G 10 58° 78% - - 51° 58.8° 54.7° - - -
4/25 8:20am 203 4 G 11 58° 78% - - 51° 58.8° 54.7° - - -
4/25 8:10am 227 5 G 9 58° 80% - - 51° 58.3° 54.7° - - -
4/25 8:00am 224 4 G 7 57° 81% - - 51° 57.9° 54.7° - - -
4/25 7:50am 247 3 G 6 57° 80% - - 51° 57.8° 54.7° - - -
4/25 7:40am 207 3 G 7 57° 81% - - 51° 57.5° 54.7° - - -
4/25 7:30am 194 4 G 7 57° 82% - - 51° 57° 54.7° - - -
4/25 7:20am 193 3 G 7 56° 83% - - 51° 57° 54.7° - - -
4/25 7:10am 164 3 G 9 56° 84% - - 51° 56.8° 54.7° - - -
4/25 7:00am 157 3 G 6 56° 84% - - 51° 56.8° 54.7° - - -
4/25 6:50am 144 2 G 7 56° 85% - - 51° 56.8° 54.7° - - -
4/25 6:40am 188 4 G 8 56° 85% - - 52° 56.8° 54.7° - - -
4/25 6:30am 206 4 G 8 56° 85% - - 51° 56.8° 54.7° - - -
4/25 6:20am 245 1 G 3 55° 84% - - 51° 56.8° 54.7° - - -
4/25 6:10am 109 1 G 2 55° 85% - - 51° 56.8° 54.7° - - -
4/25 6:00am 119 2 G 3 55° 85% - - 51° 56.8° 54.7° - - -
4/25 5:50am 62 2 G 3 55° 84% - - 51° 56.8° 54.9° - - -
4/25 5:40am 49 3 G 4 55° 84% - - 51° 56.8° 55° - - -
4/25 5:30am 140 2 G 3 56° 83% - - 51° 56.8° 55° - - -
4/25 5:20am 58 1 G 2 56° 82% - - 51° 56.8° 55° - - -
4/25 5:10am 171 1 G 3 56° 82% - - 50° 56.8° 55° - - -
4/25 5:00am 289 1 G 2 56° 82% - - 50° 56.8° 55° - - -
4/25 4:50am 74 2 G 4 56° 83% - - 50° 56.8° 55° - - -
4/25 4:40am 59 2 G 5 56° 82% - - 50° 56.8° 55° - - -
4/25 4:30am 134 3 G 6 56° 81% - - 50° 56.8° 55° - - -
4/25 4:20am 134 3 G 6 56° 81% - - 50° 56.8° 55° - - -
4/25 4:10am 145 3 G 8 56° 80% - - 50° 56.8° 55° - - -
4/25 4:00am 164 4 G 9 56° 80% - - 50° 56.8° 55° - - -
4/25 3:50am 181 4 G 8 56° 81% - - 50° 56.8° 55° - - -
4/25 3:40am 188 5 G 9 56° 81% - - 50° 56.8° 55° - - -
4/25 3:30am 192 5 G 9 56° 82% - - 50° 56.8° 55° - - -
4/25 3:20am 194 4 G 9 56° 82% - - 50° 56.8° 55° - - -
4/25 3:10am 177 5 G 12 56° 84% - - 51° 56.8° 55° - - -
4/25 3:00am 184 6 G 13 56° 85% - - 51° 56.8° 55° - - -
4/25 2:50am 196 5 G 11 56° 86% - - 51° 56.8° 55° - - -
4/25 2:40am 203 5 G 12 56° 85% - - 51° 56.8° 55° - - -
4/25 2:30am 200 4 G 11 56° 85% - - 52° 56.8° 55° - - -
4/25 2:20am 191 5 G 11 56° 84% - - 51° 56.8° 55° - - -
4/25 2:10am 185 7 G 12 56° 84% - - 51° 56.8° 55° - - -
4/25 2:00am 182 6 G 11 56° 83% - - 51° 56.8° 55° - - -
4/25 1:50am 177 6 G 14 56° 83% - - 51° 56.8° 55° - - -
4/25 1:40am 179 6 G 10 56° 83% - - 51° 56.8° 55° - - -
4/25 1:30am 178 4 G 9 56° 83% - - 51° 56.8° 55° - - -
4/25 1:20am 181 7 G 12 56° 84% - - 51° 56.8° 55° - - -
4/25 1:10am 197 5 G 11 55° 83% - - 50° 56.8° 55° - - -
4/25 1:00am 211 4 G 9 56° 81% - - 50° 56.8° 55.3° - - -
4/25 12:50am 201 4 G 11 56° 80% - - 50° 56.8° 55.7° - - -
4/25 12:40am 181 5 G 12 56° 80% - - 50° 56.8° 55.8° - - -
4/25 12:30am 188 7 G 12 56° 81% - - 50° 56.8° 55.8° - - -
4/25 12:20am 199 5 G 11 56° 84% - - 51° 56.8° 55.8° - - -
4/25 12:10am 194 2 G 7 56° 85% - - 52° 56.7° 55.8° - - -
4/25 12:00am 212 5 G 10 56° 86% - - 52° 69.5° 55° - - -
4/24 11:50pm 203 3 G 8 56° 86% - - 52° 69.5° 55° - - -
4/24 11:40pm 209 4 G 9 56° 85% - - 52° 69.5° 55° - - -
4/24 11:30pm 253 4 G 7 57° 82% - - 51° 69.5° 55° - - -
4/24 11:20pm 249 3 G 6 57° 80% - - 51° 69.5° 55° - - -
4/24 11:10pm 249 3 G 5 57° 79% - - 51° 69.5° 55° - - -
4/24 11:00pm 255 3 G 5 57° 80% - - 51° 69.5° 55° - - -
4/24 10:50pm 248 3 G 5 57° 81% - - 51° 69.5° 55° - - -
4/24 10:40pm 223 3 G 6 57° 82% - - 51° 69.5° 55° - - -
4/24 10:30pm 232 3 G 7 57° 83% - - 52° 69.5° 55° - - -
4/24 10:20pm 233 3 G 6 57° 84% - - 52° 69.5° 55° - - -
4/24 10:10pm 220 3 G 7 57° 85% - - 52° 69.5° 55° - - -
4/24 10:00pm 218 3 G 6 57° 84% - - 52° 69.5° 55° - - -
4/24 9:50pm 244 3 G 6 57° 83% - - 52° 69.5° 55° - - -
4/24 9:40pm 239 3 G 5 57° 82% - - 52° 69.5° 55° - - -
4/24 9:30pm 242 3 G 6 57° 82% - - 52° 69.5° 55° - - -
4/24 9:20pm 244 3 G 5 57° 82% - - 52° 69.5° 55° - - -
4/24 9:10pm 255 3 G 6 58° 82% - - 52° 69.5° 55° - - -
4/24 9:00pm 244 3 G 5 58° 82% - - 52° 69.5° 55° - - -
4/24 8:50pm 250 2 G 5 58° 81% - - 52° 69.5° 55° - - -
4/24 8:40pm 253 2 G 5 58° 79% - - 52° 69.5° 55° - - -
4/24 8:30pm 256 3 G 5 58° 78% - - 51° 69.5° 55° - - -
4/24 8:20pm 242 2 G 4 58° 78% - - 51° 69.5° 55° - - -
4/24 8:10pm 247 2 G 5 58° 79% - - 51° 69.5° 55° - - -
4/24 8:00pm 247 4 G 8 58° 79% - - 51° 69.5° 55° - - -
4/24 7:50pm 253 4 G 8 58° 80% - - 52° 69.5° 55° - - -
4/24 7:40pm 250 5 G 8 58° 80% - - 52° 69.5° 55° - - -
4/24 7:30pm 259 3 G 6 59° 79% - - 52° 69.5° 55° - - -
4/24 7:20pm 268 4 G 8 59° 79% - - 52° 69.5° 55° - - -
4/24 7:10pm 266 5 G 10 59° 78% - - 52° 69.5° 55° - - -
4/24 7:00pm 254 5 G 9 59° 79% - - 53° 69.5° 55° - - -
4/24 6:50pm 268 6 G 10 60° 79% - - 53° 69.5° 55° - - -
4/24 6:40pm 267 6 G 10 60° 77% - - 53° 69.5° 55° - - -
4/24 6:30pm 275 6 G 13 60° 76% - - 53° 69.5° 55° - - -
4/24 6:20pm 272 6 G 11 61° 75% - - 53° 69.5° 55° - - -
4/24 6:10pm 265 6 G 11 62° 73% - - 53° 69.5° 55° - - -
4/24 6:00pm 275 7 G 14 61° 74% - - 53° 69.5° 55° - - -